Headland, Alabama
Current Conditions -  °F | °C
As of 7:53 AM on Thursday 23 Oct 2014 (Local Time) from KDHN Reporting Station
Clear Clear  
Wind Chill: 46°   Ceiling: Unl
Heat Index: 49°   Visibility: 10mi
Dew Point: 45°   Wind: 7mph
Humidity: 86%   Direction: 40°NE
Pressure: 30.14"   Gusts: NA
Location:  31.35°N, 85.34°W
Report Text: KDHN 231253Z 04006KT 10SM CLR 09/07 A3014 RMK AO2 SLP206 T00940072
Loading
Personal Weather Stations






























Interactive Weather Map New forecast layout! Learn more

10-Day Weather Forecast

Advertisements
Track Severe Weather on mobile